sensor_id;sensor_type;location;lat;lon;timestamp;temperature;humidity
19945;DHT22;10134;50.952;6.930;2022-07-06T00:01:34;20.10;73.80
19945;DHT22;10134;50.952;6.930;2022-07-06T00:04:02;20.10;73.70
19945;DHT22;10134;50.952;6.930;2022-07-06T00:06:30;20.10;73.60
19945;DHT22;10134;50.952;6.930;2022-07-06T00:08:57;20.00;73.50
19945;DHT22;10134;50.952;6.930;2022-07-06T00:11:25;20.00;73.60
19945;DHT22;10134;50.952;6.930;2022-07-06T00:13:52;20.00;73.80
19945;DHT22;10134;50.952;6.930;2022-07-06T00:16:20;20.00;73.90
19945;DHT22;10134;50.952;6.930;2022-07-06T00:18:48;19.90;74.10
19945;DHT22;10134;50.952;6.930;2022-07-06T00:21:16;19.90;74.30
19945;DHT22;10134;50.952;6.930;2022-07-06T00:23:43;19.80;74.50
19945;DHT22;10134;50.952;6.930;2022-07-06T00:26:11;19.80;74.70
19945;DHT22;10134;50.952;6.930;2022-07-06T00:28:38;19.80;74.80
19945;DHT22;10134;50.952;6.930;2022-07-06T00:31:05;19.70;75.00
19945;DHT22;10134;50.952;6.930;2022-07-06T00:33:33;19.70;75.00
19945;DHT22;10134;50.952;6.930;2022-07-06T00:36:00;19.60;75.10
19945;DHT22;10134;50.952;6.930;2022-07-06T00:38:27;19.60;75.20
19945;DHT22;10134;50.952;6.930;2022-07-06T00:40:56;19.50;75.20
19945;DHT22;10134;50.952;6.930;2022-07-06T00:43:23;19.50;75.40
19945;DHT22;10134;50.952;6.930;2022-07-06T00:45:50;19.40;75.40
19945;DHT22;10134;50.952;6.930;2022-07-06T00:48:18;19.30;75.50
19945;DHT22;10134;50.952;6.930;2022-07-06T00:50:45;19.30;75.70
19945;DHT22;10134;50.952;6.930;2022-07-06T00:53:13;19.30;75.80
19945;DHT22;10134;50.952;6.930;2022-07-06T00:55:41;19.30;75.90
19945;DHT22;10134;50.952;6.930;2022-07-06T00:58:10;19.20;75.90
19945;DHT22;10134;50.952;6.930;2022-07-06T01:00:38;19.20;76.10
19945;DHT22;10134;50.952;6.930;2022-07-06T01:03:11;19.20;76.10
19945;DHT22;10134;50.952;6.930;2022-07-06T01:05:38;19.10;76.10
19945;DHT22;10134;50.952;6.930;2022-07-06T01:08:06;19.10;76.90
19945;DHT22;10134;50.952;6.930;2022-07-06T01:10:33;19.00;76.30
19945;DHT22;10134;50.952;6.930;2022-07-06T01:13:01;19.00;76.40
19945;DHT22;10134;50.952;6.930;2022-07-06T01:15:28;18.90;76.50
19945;DHT22;10134;50.952;6.930;2022-07-06T01:17:56;18.90;77.40
19945;DHT22;10134;50.952;6.930;2022-07-06T01:20:29;18.80;76.80
19945;DHT22;10134;50.952;6.930;2022-07-06T01:22:59;18.80;77.00
19945;DHT22;10134;50.952;6.930;2022-07-06T01:25:26;18.70;77.10
19945;DHT22;10134;50.952;6.930;2022-07-06T01:27:54;18.70;77.30
19945;DHT22;10134;50.952;6.930;2022-07-06T01:30:21;18.70;77.40
19945;DHT22;10134;50.952;6.930;2022-07-06T01:32:50;18.60;77.50
19945;DHT22;10134;50.952;6.930;2022-07-06T01:35:18;18.60;77.60
19945;DHT22;10134;50.952;6.930;2022-07-06T01:37:46;18.60;77.80
19945;DHT22;10134;50.952;6.930;2022-07-06T01:40:13;18.60;77.90
19945;DHT22;10134;50.952;6.930;2022-07-06T01:42:41;18.60;77.90
19945;DHT22;10134;50.952;6.930;2022-07-06T01:45:09;18.50;77.90
19945;DHT22;10134;50.952;6.930;2022-07-06T01:47:37;18.50;78.00
19945;DHT22;10134;50.952;6.930;2022-07-06T01:50:07;18.50;78.30
19945;DHT22;10134;50.952;6.930;2022-07-06T01:52:39;18.40;78.40
19945;DHT22;10134;50.952;6.930;2022-07-06T01:55:07;18.40;78.60
19945;DHT22;10134;50.952;6.930;2022-07-06T01:57:35;18.30;78.50
19945;DHT22;10134;50.952;6.930;2022-07-06T02:00:06;18.30;78.70
19945;DHT22;10134;50.952;6.930;2022-07-06T02:02:38;18.20;78.70
19945;DHT22;10134;50.952;6.930;2022-07-06T02:05:08;18.20;78.90
19945;DHT22;10134;50.952;6.930;2022-07-06T02:07:35;18.10;79.00
19945;DHT22;10134;50.952;6.930;2022-07-06T02:10:04;18.10;79.30
19945;DHT22;10134;50.952;6.930;2022-07-06T02:12:31;18.00;79.30
19945;DHT22;10134;50.952;6.930;2022-07-06T02:14:58;17.90;79.40
19945;DHT22;10134;50.952;6.930;2022-07-06T02:17:26;17.90;79.60
19945;DHT22;10134;50.952;6.930;2022-07-06T02:19:53;17.90;79.90
19945;DHT22;10134;50.952;6.930;2022-07-06T02:22:21;17.80;79.90
19945;DHT22;10134;50.952;6.930;2022-07-06T02:24:48;17.80;80.10
19945;DHT22;10134;50.952;6.930;2022-07-06T02:27:16;17.80;80.20
19945;DHT22;10134;50.952;6.930;2022-07-06T02:29:44;17.80;80.50
19945;DHT22;10134;50.952;6.930;2022-07-06T02:32:11;17.80;80.50
19945;DHT22;10134;50.952;6.930;2022-07-06T02:34:38;17.80;80.60
19945;DHT22;10134;50.952;6.930;2022-07-06T02:37:06;17.70;80.60
19945;DHT22;10134;50.952;6.930;2022-07-06T02:39:33;17.70;80.80
19945;DHT22;10134;50.952;6.930;2022-07-06T02:42:02;17.70;80.90
19945;DHT22;10134;50.952;6.930;2022-07-06T02:44:30;17.60;80.80
19945;DHT22;10134;50.952;6.930;2022-07-06T02:46:57;17.50;80.90
19945;DHT22;10134;50.952;6.930;2022-07-06T02:49:25;17.50;81.20
19945;DHT22;10134;50.952;6.930;2022-07-06T02:51:52;17.40;81.30
19945;DHT22;10134;50.952;6.930;2022-07-06T02:54:20;17.40;81.40
19945;DHT22;10134;50.952;6.930;2022-07-06T02:56:47;17.40;81.50
19945;DHT22;10134;50.952;6.930;2022-07-06T02:59:20;17.40;81.70
19945;DHT22;10134;50.952;6.930;2022-07-06T03:01:48;17.30;81.60
19945;DHT22;10134;50.952;6.930;2022-07-06T03:04:16;17.40;81.90
19945;DHT22;10134;50.952;6.930;2022-07-06T03:06:44;17.40;82.00
19945;DHT22;10134;50.952;6.930;2022-07-06T03:09:13;17.40;82.30
19945;DHT22;10134;50.952;6.930;2022-07-06T03:11:40;17.30;82.30
19945;DHT22;10134;50.952;6.930;2022-07-06T03:14:08;17.30;82.40
19945;DHT22;10134;50.952;6.930;2022-07-06T03:16:38;17.30;82.40
19945;DHT22;10134;50.952;6.930;2022-07-06T03:19:05;17.30;82.60
19945;DHT22;10134;50.952;6.930;2022-07-06T03:21:33;17.30;82.70
19945;DHT22;10134;50.952;6.930;2022-07-06T03:24:01;17.20;82.70
19945;DHT22;10134;50.952;6.930;2022-07-06T03:26:29;17.20;82.90
19945;DHT22;10134;50.952;6.930;2022-07-06T03:28:57;17.20;83.00
19945;DHT22;10134;50.952;6.930;2022-07-06T03:31:25;17.20;83.20
19945;DHT22;10134;50.952;6.930;2022-07-06T03:33:53;17.10;83.20
19945;DHT22;10134;50.952;6.930;2022-07-06T03:36:20;17.10;83.30
19945;DHT22;10134;50.952;6.930;2022-07-06T03:38:48;17.10;83.30
19945;DHT22;10134;50.952;6.930;2022-07-06T03:41:16;17.10;83.40
19945;DHT22;10134;50.952;6.930;2022-07-06T03:43:44;17.10;83.60
19945;DHT22;10134;50.952;6.930;2022-07-06T03:46:12;17.10;83.60
19945;DHT22;10134;50.952;6.930;2022-07-06T03:48:39;17.00;83.60
19945;DHT22;10134;50.952;6.930;2022-07-06T03:51:08;17.00;83.70
19945;DHT22;10134;50.952;6.930;2022-07-06T03:53:35;17.00;83.90
19945;DHT22;10134;50.952;6.930;2022-07-06T03:56:03;17.00;84.10
19945;DHT22;10134;50.952;6.930;2022-07-06T03:58:49;17.00;84.30
19945;DHT22;10134;50.952;6.930;2022-07-06T04:01:17;17.00;84.40
19945;DHT22;10134;50.952;6.930;2022-07-06T04:03:45;16.90;84.50
19945;DHT22;10134;50.952;6.930;2022-07-06T04:06:13;16.90;84.60
19945;DHT22;10134;50.952;6.930;2022-07-06T04:08:41;16.90;84.80
19945;DHT22;10134;50.952;6.930;2022-07-06T04:11:08;16.90;84.70
19945;DHT22;10134;50.952;6.930;2022-07-06T04:13:36;16.90;84.90
19945;DHT22;10134;50.952;6.930;2022-07-06T04:16:04;16.90;85.10
19945;DHT22;10134;50.952;6.930;2022-07-06T04:18:32;16.90;85.20
19945;DHT22;10134;50.952;6.930;2022-07-06T04:21:00;16.90;85.50
19945;DHT22;10134;50.952;6.930;2022-07-06T04:23:29;16.90;85.50
19945;DHT22;10134;50.952;6.930;2022-07-06T04:25:57;16.80;85.70
19945;DHT22;10134;50.952;6.930;2022-07-06T04:28:26;16.80;85.80
19945;DHT22;10134;50.952;6.930;2022-07-06T04:30:53;16.80;86.00
19945;DHT22;10134;50.952;6.930;2022-07-06T04:33:23;16.80;86.00
19945;DHT22;10134;50.952;6.930;2022-07-06T04:35:50;16.70;86.20
19945;DHT22;10134;50.952;6.930;2022-07-06T04:38:20;16.70;86.40
19945;DHT22;10134;50.952;6.930;2022-07-06T04:40:50;16.70;86.60
19945;DHT22;10134;50.952;6.930;2022-07-06T04:43:19;16.70;86.70
19945;DHT22;10134;50.952;6.930;2022-07-06T04:45:47;16.80;87.50
19945;DHT22;10134;50.952;6.930;2022-07-06T04:48:14;16.70;86.90
19945;DHT22;10134;50.952;6.930;2022-07-06T04:50:41;16.70;86.90
19945;DHT22;10134;50.952;6.930;2022-07-06T04:53:14;16.80;87.20
19945;DHT22;10134;50.952;6.930;2022-07-06T04:55:41;16.70;87.80
19945;DHT22;10134;50.952;6.930;2022-07-06T04:58:09;16.80;87.40
19945;DHT22;10134;50.952;6.930;2022-07-06T05:00:36;16.80;87.50
19945;DHT22;10134;50.952;6.930;2022-07-06T05:03:04;16.80;87.60
19945;DHT22;10134;50.952;6.930;2022-07-06T05:05:31;16.80;87.70
19945;DHT22;10134;50.952;6.930;2022-07-06T05:08:00;16.80;87.90
19945;DHT22;10134;50.952;6.930;2022-07-06T05:10:27;16.80;87.90
19945;DHT22;10134;50.952;6.930;2022-07-06T05:12:57;16.80;88.10
19945;DHT22;10134;50.952;6.930;2022-07-06T05:15:26;16.80;88.10
19945;DHT22;10134;50.952;6.930;2022-07-06T05:17:53;16.80;88.20
19945;DHT22;10134;50.952;6.930;2022-07-06T05:20:21;16.80;88.20
19945;DHT22;10134;50.952;6.930;2022-07-06T05:22:48;16.80;88.40
19945;DHT22;10134;50.952;6.930;2022-07-06T05:25:19;16.90;88.60
19945;DHT22;10134;50.952;6.930;2022-07-06T05:27:47;16.90;88.80
19945;DHT22;10134;50.952;6.930;2022-07-06T05:30:14;16.90;89.40
19945;DHT22;10134;50.952;6.930;2022-07-06T05:32:43;16.90;88.90
19945;DHT22;10134;50.952;6.930;2022-07-06T05:35:11;16.90;88.90
19945;DHT22;10134;50.952;6.930;2022-07-06T05:38:00;17.00;88.90
19945;DHT22;10134;50.952;6.930;2022-07-06T05:40:28;17.00;88.90
19945;DHT22;10134;50.952;6.930;2022-07-06T05:42:55;17.00;88.90
19945;DHT22;10134;50.952;6.930;2022-07-06T05:45:22;17.00;89.10
19945;DHT22;10134;50.952;6.930;2022-07-06T05:47:52;17.00;89.10
19945;DHT22;10134;50.952;6.930;2022-07-06T05:50:39;17.00;89.30
19945;DHT22;10134;50.952;6.930;2022-07-06T05:53:07;17.00;89.40
19945;DHT22;10134;50.952;6.930;2022-07-06T05:55:47;17.10;89.60
19945;DHT22;10134;50.952;6.930;2022-07-06T05:58:15;17.10;89.70
19945;DHT22;10134;50.952;6.930;2022-07-06T06:00:44;17.10;89.80
19945;DHT22;10134;50.952;6.930;2022-07-06T06:03:15;17.10;89.80
19945;DHT22;10134;50.952;6.930;2022-07-06T06:05:43;17.20;90.00
19945;DHT22;10134;50.952;6.930;2022-07-06T06:08:13;17.20;90.00
19945;DHT22;10134;50.952;6.930;2022-07-06T06:10:40;17.20;90.00
19945;DHT22;10134;50.952;6.930;2022-07-06T06:13:12;17.30;90.00
19945;DHT22;10134;50.952;6.930;2022-07-06T06:15:39;17.30;90.00
19945;DHT22;10134;50.952;6.930;2022-07-06T06:18:07;17.30;90.00
19945;DHT22;10134;50.952;6.930;2022-07-06T06:20:34;17.40;90.10
19945;DHT22;10134;50.952;6.930;2022-07-06T06:23:02;17.40;90.00
19945;DHT22;10134;50.952;6.930;2022-07-06T06:25:36;17.40;90.00
19945;DHT22;10134;50.952;6.930;2022-07-06T06:28:06;17.50;90.10
19945;DHT22;10134;50.952;6.930;2022-07-06T06:30:34;17.50;90.00
19945;DHT22;10134;50.952;6.930;2022-07-06T06:35:47;17.50;89.80
19945;DHT22;10134;50.952;6.930;2022-07-06T06:38:16;17.60;89.60
19945;DHT22;10134;50.952;6.930;2022-07-06T06:40:44;17.60;89.60
19945;DHT22;10134;50.952;6.930;2022-07-06T06:43:11;17.70;89.70
19945;DHT22;10134;50.952;6.930;2022-07-06T06:45:50;17.70;89.50
19945;DHT22;10134;50.952;6.930;2022-07-06T06:48:18;17.80;89.40
19945;DHT22;10134;50.952;6.930;2022-07-06T06:50:46;17.80;88.90
19945;DHT22;10134;50.952;6.930;2022-07-06T06:53:13;17.80;88.70
19945;DHT22;10134;50.952;6.930;2022-07-06T06:55:41;17.80;88.60
19945;DHT22;10134;50.952;6.930;2022-07-06T06:58:08;17.80;88.90
19945;DHT22;10134;50.952;6.930;2022-07-06T07:00:35;17.80;88.10
19945;DHT22;10134;50.952;6.930;2022-07-06T07:03:03;17.90;88.30
19945;DHT22;10134;50.952;6.930;2022-07-06T07:05:30;17.90;88.30
19945;DHT22;10134;50.952;6.930;2022-07-06T07:07:57;18.00;88.20
19945;DHT22;10134;50.952;6.930;2022-07-06T07:10:32;18.00;88.20
19945;DHT22;10134;50.952;6.930;2022-07-06T07:13:00;18.10;88.30
19945;DHT22;10134;50.952;6.930;2022-07-06T07:15:27;18.10;88.10
19945;DHT22;10134;50.952;6.930;2022-07-06T07:17:55;18.20;87.90
19945;DHT22;10134;50.952;6.930;2022-07-06T07:20:22;18.20;87.80
19945;DHT22;10134;50.952;6.930;2022-07-06T07:22:50;18.30;87.80
19945;DHT22;10134;50.952;6.930;2022-07-06T07:25:17;18.40;87.60
19945;DHT22;10134;50.952;6.930;2022-07-06T07:27:45;18.50;87.40
19945;DHT22;10134;50.952;6.930;2022-07-06T07:30:12;18.50;87.20
19945;DHT22;10134;50.952;6.930;2022-07-06T07:32:40;18.50;86.30
19945;DHT22;10134;50.952;6.930;2022-07-06T07:35:10;18.60;86.00
19945;DHT22;10134;50.952;6.930;2022-07-06T07:37:37;18.60;86.00
19945;DHT22;10134;50.952;6.930;2022-07-06T07:40:05;18.60;85.80
19945;DHT22;10134;50.952;6.930;2022-07-06T07:42:33;18.70;85.60
19945;DHT22;10134;50.952;6.930;2022-07-06T07:45:00;18.70;85.50
19945;DHT22;10134;50.952;6.930;2022-07-06T07:47:27;18.80;85.30
19945;DHT22;10134;50.952;6.930;2022-07-06T07:49:55;18.80;85.20
19945;DHT22;10134;50.952;6.930;2022-07-06T07:52:22;18.90;85.00
19945;DHT22;10134;50.952;6.930;2022-07-06T07:54:49;18.90;85.00
19945;DHT22;10134;50.952;6.930;2022-07-06T07:57:37;19.00;84.90
19945;DHT22;10134;50.952;6.930;2022-07-06T08:00:05;19.00;84.60
19945;DHT22;10134;50.952;6.930;2022-07-06T08:02:37;19.00;84.40
19945;DHT22;10134;50.952;6.930;2022-07-06T08:05:05;19.00;83.60
19945;DHT22;10134;50.952;6.930;2022-07-06T08:07:33;19.10;83.70
19945;DHT22;10134;50.952;6.930;2022-07-06T08:10:00;19.10;83.70
19945;DHT22;10134;50.952;6.930;2022-07-06T08:12:27;19.20;83.80
19945;DHT22;10134;50.952;6.930;2022-07-06T08:14:55;19.20;83.80
19945;DHT22;10134;50.952;6.930;2022-07-06T08:17:23;19.30;83.80
19945;DHT22;10134;50.952;6.930;2022-07-06T08:19:50;19.30;83.70
19945;DHT22;10134;50.952;6.930;2022-07-06T08:22:17;19.40;81.60
19945;DHT22;10134;50.952;6.930;2022-07-06T08:24:45;19.40;81.30
19945;DHT22;10134;50.952;6.930;2022-07-06T08:27:12;19.40;81.50
19945;DHT22;10134;50.952;6.930;2022-07-06T08:29:39;19.40;81.20
19945;DHT22;10134;50.952;6.930;2022-07-06T08:32:07;19.50;81.30
19945;DHT22;10134;50.952;6.930;2022-07-06T08:34:54;19.50;81.20
19945;DHT22;10134;50.952;6.930;2022-07-06T08:37:21;19.50;80.40
19945;DHT22;10134;50.952;6.930;2022-07-06T08:39:49;19.50;80.60
19945;DHT22;10134;50.952;6.930;2022-07-06T08:42:16;19.60;80.50
19945;DHT22;10134;50.952;6.930;2022-07-06T08:44:45;19.60;80.60
19945;DHT22;10134;50.952;6.930;2022-07-06T08:47:13;19.60;80.70
19945;DHT22;10134;50.952;6.930;2022-07-06T08:49:44;19.60;80.60
19945;DHT22;10134;50.952;6.930;2022-07-06T08:52:12;19.70;80.80
19945;DHT22;10134;50.952;6.930;2022-07-06T08:54:39;19.70;81.00
19945;DHT22;10134;50.952;6.930;2022-07-06T08:57:07;19.70;80.20
19945;DHT22;10134;50.952;6.930;2022-07-06T08:59:35;19.70;79.70
19945;DHT22;10134;50.952;6.930;2022-07-06T09:02:03;19.70;79.20
19945;DHT22;10134;50.952;6.930;2022-07-06T09:04:33;19.70;79.10
19945;DHT22;10134;50.952;6.930;2022-07-06T09:07:02;19.70;79.40
19945;DHT22;10134;50.952;6.930;2022-07-06T09:09:30;19.70;79.10
19945;DHT22;10134;50.952;6.930;2022-07-06T09:12:01;19.70;79.10
19945;DHT22;10134;50.952;6.930;2022-07-06T09:14:30;19.70;79.30
19945;DHT22;10134;50.952;6.930;2022-07-06T09:17:03;19.70;79.20
19945;DHT22;10134;50.952;6.930;2022-07-06T09:19:32;19.80;79.60
19945;DHT22;10134;50.952;6.930;2022-07-06T09:22:00;19.80;79.40
19945;DHT22;10134;50.952;6.930;2022-07-06T09:24:28;19.70;79.40
19945;DHT22;10134;50.952;6.930;2022-07-06T09:26:56;19.70;79.60
19945;DHT22;10134;50.952;6.930;2022-07-06T09:29:28;19.80;79.30
19945;DHT22;10134;50.952;6.930;2022-07-06T09:32:01;19.80;79.20
19945;DHT22;10134;50.952;6.930;2022-07-06T09:37:10;19.80;77.80
19945;DHT22;10134;50.952;6.930;2022-07-06T09:39:38;19.80;77.30
19945;DHT22;10134;50.952;6.930;2022-07-06T09:42:06;19.80;77.60
19945;DHT22;10134;50.952;6.930;2022-07-06T09:44:42;19.80;77.80
19945;DHT22;10134;50.952;6.930;2022-07-06T09:47:10;19.80;77.10
19945;DHT22;10134;50.952;6.930;2022-07-06T09:49:39;19.80;77.20
19945;DHT22;10134;50.952;6.930;2022-07-06T09:52:10;19.90;77.10
19945;DHT22;10134;50.952;6.930;2022-07-06T09:54:38;19.90;76.40
19945;DHT22;10134;50.952;6.930;2022-07-06T09:57:06;19.90;76.20
19945;DHT22;10134;50.952;6.930;2022-07-06T09:59:36;19.90;76.40
19945;DHT22;10134;50.952;6.930;2022-07-06T10:02:06;19.90;76.80
19945;DHT22;10134;50.952;6.930;2022-07-06T10:04:35;20.00;77.40
19945;DHT22;10134;50.952;6.930;2022-07-06T10:07:04;20.00;77.80
19945;DHT22;10134;50.952;6.930;2022-07-06T10:09:31;20.00;77.90
19945;DHT22;10134;50.952;6.930;2022-07-06T10:12:02;20.10;78.20
19945;DHT22;10134;50.952;6.930;2022-07-06T10:14:32;20.10;78.40
19945;DHT22;10134;50.952;6.930;2022-07-06T10:17:01;20.20;78.50
19945;DHT22;10134;50.952;6.930;2022-07-06T10:19:30;20.20;78.60
19945;DHT22;10134;50.952;6.930;2022-07-06T10:22:00;20.30;78.40
19945;DHT22;10134;50.952;6.930;2022-07-06T10:24:28;20.30;78.10
19945;DHT22;10134;50.952;6.930;2022-07-06T10:26:56;20.30;77.80
19945;DHT22;10134;50.952;6.930;2022-07-06T10:29:24;20.30;77.60
19945;DHT22;10134;50.952;6.930;2022-07-06T10:31:53;20.40;77.60
19945;DHT22;10134;50.952;6.930;2022-07-06T10:34:21;20.40;77.30
19945;DHT22;10134;50.952;6.930;2022-07-06T10:36:51;20.40;76.50
19945;DHT22;10134;50.952;6.930;2022-07-06T10:39:35;20.40;76.20
19945;DHT22;10134;50.952;6.930;2022-07-06T10:42:45;20.40;75.30
19945;DHT22;10134;50.952;6.930;2022-07-06T10:48:17;20.50;75.90
19945;DHT22;10134;50.952;6.930;2022-07-06T10:50:53;20.50;75.90
19945;DHT22;10134;50.952;6.930;2022-07-06T10:53:23;20.60;74.30
19945;DHT22;10134;50.952;6.930;2022-07-06T10:55:52;20.50;74.00
19945;DHT22;10134;50.952;6.930;2022-07-06T11:01:04;20.60;74.40
19945;DHT22;10134;50.952;6.930;2022-07-06T11:03:42;20.60;74.40
19945;DHT22;10134;50.952;6.930;2022-07-06T11:06:17;20.70;74.40
19945;DHT22;10134;50.952;6.930;2022-07-06T11:08:49;20.70;74.50
19945;DHT22;10134;50.952;6.930;2022-07-06T11:13:49;20.80;74.00
19945;DHT22;10134;50.952;6.930;2022-07-06T11:16:17;20.90;73.60
19945;DHT22;10134;50.952;6.930;2022-07-06T11:18:47;20.90;74.00
19945;DHT22;10134;50.952;6.930;2022-07-06T11:21:21;20.90;73.00
19945;DHT22;10134;50.952;6.930;2022-07-06T11:23:50;21.00;72.50
19945;DHT22;10134;50.952;6.930;2022-07-06T11:26:18;21.00;71.60
19945;DHT22;10134;50.952;6.930;2022-07-06T11:28:46;21.00;72.10
19945;DHT22;10134;50.952;6.930;2022-07-06T11:31:15;21.00;72.10
19945;DHT22;10134;50.952;6.930;2022-07-06T11:33:45;21.00;71.60
19945;DHT22;10134;50.952;6.930;2022-07-06T11:36:18;21.10;70.60
19945;DHT22;10134;50.952;6.930;2022-07-06T11:38:47;21.00;71.20
19945;DHT22;10134;50.952;6.930;2022-07-06T11:41:15;21.10;71.60
19945;DHT22;10134;50.952;6.930;2022-07-06T11:43:45;21.20;71.70
19945;DHT22;10134;50.952;6.930;2022-07-06T11:46:24;21.20;70.90
19945;DHT22;10134;50.952;6.930;2022-07-06T11:48:54;21.20;70.90
19945;DHT22;10134;50.952;6.930;2022-07-06T11:51:23;21.20;71.10
19945;DHT22;10134;50.952;6.930;2022-07-06T11:53:55;21.20;71.10
19945;DHT22;10134;50.952;6.930;2022-07-06T11:56:24;21.20;71.30
19945;DHT22;10134;50.952;6.930;2022-07-06T11:58:57;21.20;71.50
19945;DHT22;10134;50.952;6.930;2022-07-06T12:01:28;21.20;71.60
19945;DHT22;10134;50.952;6.930;2022-07-06T12:03:59;21.30;71.80
19945;DHT22;10134;50.952;6.930;2022-07-06T12:06:27;21.30;71.30
19945;DHT22;10134;50.952;6.930;2022-07-06T12:08:57;21.30;71.60
19945;DHT22;10134;50.952;6.930;2022-07-06T12:11:29;21.40;71.60
19945;DHT22;10134;50.952;6.930;2022-07-06T12:14:02;21.40;71.60
19945;DHT22;10134;50.952;6.930;2022-07-06T12:16:35;21.50;71.60
19945;DHT22;10134;50.952;6.930;2022-07-06T12:19:03;21.50;71.80
19945;DHT22;10134;50.952;6.930;2022-07-06T12:21:34;21.60;71.50
19945;DHT22;10134;50.952;6.930;2022-07-06T12:24:06;21.70;70.90
19945;DHT22;10134;50.952;6.930;2022-07-06T12:26:44;21.70;71.00
19945;DHT22;10134;50.952;6.930;2022-07-06T12:29:12;21.80;71.00
19945;DHT22;10134;50.952;6.930;2022-07-06T12:31:48;21.80;70.00
19945;DHT22;10134;50.952;6.930;2022-07-06T12:34:19;21.80;70.00
19945;DHT22;10134;50.952;6.930;2022-07-06T12:36:52;21.80;69.50
19945;DHT22;10134;50.952;6.930;2022-07-06T12:39:24;21.80;69.50
19945;DHT22;10134;50.952;6.930;2022-07-06T12:42:00;21.80;69.80
19945;DHT22;10134;50.952;6.930;2022-07-06T12:44:28;21.80;70.10
19945;DHT22;10134;50.952;6.930;2022-07-06T12:47:06;21.90;70.30
19945;DHT22;10134;50.952;6.930;2022-07-06T12:49:35;21.90;70.10
19945;DHT22;10134;50.952;6.930;2022-07-06T12:52:16;21.90;69.80
19945;DHT22;10134;50.952;6.930;2022-07-06T12:57:21;22.00;70.80
19945;DHT22;10134;50.952;6.930;2022-07-06T13:02:22;22.10;70.00
19945;DHT22;10134;50.952;6.930;2022-07-06T13:05:12;22.10;70.00
19945;DHT22;10134;50.952;6.930;2022-07-06T13:07:47;22.20;70.00
19945;DHT22;10134;50.952;6.930;2022-07-06T13:10:16;22.30;69.90
19945;DHT22;10134;50.952;6.930;2022-07-06T13:12:44;22.30;69.40
19945;DHT22;10134;50.952;6.930;2022-07-06T13:15:13;22.40;69.40
19945;DHT22;10134;50.952;6.930;2022-07-06T13:17:41;22.50;69.50
19945;DHT22;10134;50.952;6.930;2022-07-06T13:20:10;22.50;69.00
19945;DHT22;10134;50.952;6.930;2022-07-06T13:22:39;22.60;69.20
19945;DHT22;10134;50.952;6.930;2022-07-06T13:25:07;22.70;69.50
19945;DHT22;10134;50.952;6.930;2022-07-06T13:27:35;22.80;69.50
19945;DHT22;10134;50.952;6.930;2022-07-06T13:30:03;22.80;69.70
19945;DHT22;10134;50.952;6.930;2022-07-06T13:32:30;22.90;69.10
19945;DHT22;10134;50.952;6.930;2022-07-06T13:34:58;23.00;68.90
19945;DHT22;10134;50.952;6.930;2022-07-06T13:37:25;23.00;69.80
19945;DHT22;10134;50.952;6.930;2022-07-06T13:39:52;23.10;67.60
19945;DHT22;10134;50.952;6.930;2022-07-06T13:42:19;23.10;68.00
19945;DHT22;10134;50.952;6.930;2022-07-06T13:44:47;23.10;67.10
19945;DHT22;10134;50.952;6.930;2022-07-06T13:47:14;23.10;67.70
19945;DHT22;10134;50.952;6.930;2022-07-06T13:49:41;23.20;67.80
19945;DHT22;10134;50.952;6.930;2022-07-06T13:52:10;23.20;67.90
19945;DHT22;10134;50.952;6.930;2022-07-06T13:54:38;23.30;68.00
19945;DHT22;10134;50.952;6.930;2022-07-06T13:57:05;23.30;67.50
19945;DHT22;10134;50.952;6.930;2022-07-06T13:59:33;23.40;68.00
19945;DHT22;10134;50.952;6.930;2022-07-06T14:02:01;23.50;68.30
19945;DHT22;10134;50.952;6.930;2022-07-06T14:04:28;23.50;68.00
19945;DHT22;10134;50.952;6.930;2022-07-06T14:06:55;23.60;67.80
19945;DHT22;10134;50.952;6.930;2022-07-06T14:09:23;23.70;68.00
19945;DHT22;10134;50.952;6.930;2022-07-06T14:11:50;23.70;67.60
19945;DHT22;10134;50.952;6.930;2022-07-06T14:14:17;23.80;67.70
19945;DHT22;10134;50.952;6.930;2022-07-06T14:16:44;23.90;67.60
19945;DHT22;10134;50.952;6.930;2022-07-06T14:19:12;24.00;68.10
19945;DHT22;10134;50.952;6.930;2022-07-06T14:21:46;24.10;67.70
19945;DHT22;10134;50.952;6.930;2022-07-06T14:24:14;24.10;67.30
19945;DHT22;10134;50.952;6.930;2022-07-06T14:26:42;24.20;66.80
19945;DHT22;10134;50.952;6.930;2022-07-06T14:29:09;24.30;67.10
19945;DHT22;10134;50.952;6.930;2022-07-06T14:31:36;24.40;66.10
19945;DHT22;10134;50.952;6.930;2022-07-06T14:34:04;24.40;65.80
19945;DHT22;10134;50.952;6.930;2022-07-06T14:36:31;24.50;66.30
19945;DHT22;10134;50.952;6.930;2022-07-06T14:39:00;24.50;65.70
19945;DHT22;10134;50.952;6.930;2022-07-06T14:41:27;24.60;66.00
19945;DHT22;10134;50.952;6.930;2022-07-06T14:43:55;24.60;65.20
19945;DHT22;10134;50.952;6.930;2022-07-06T14:46:22;24.70;65.80
19945;DHT22;10134;50.952;6.930;2022-07-06T14:48:50;24.80;65.90
19945;DHT22;10134;50.952;6.930;2022-07-06T14:51:17;24.80;65.40
19945;DHT22;10134;50.952;6.930;2022-07-06T14:53:44;24.90;64.20
19945;DHT22;10134;50.952;6.930;2022-07-06T14:56:12;24.90;64.10
19945;DHT22;10134;50.952;6.930;2022-07-06T14:58:39;25.00;64.80
19945;DHT22;10134;50.952;6.930;2022-07-06T15:01:19;25.10;65.40
19945;DHT22;10134;50.952;6.930;2022-07-06T15:03:46;25.30;65.30
19945;DHT22;10134;50.952;6.930;2022-07-06T15:06:14;25.40;64.90
19945;DHT22;10134;50.952;6.930;2022-07-06T15:09:02;25.50;63.10
19945;DHT22;10134;50.952;6.930;2022-07-06T15:11:31;25.60;64.10
19945;DHT22;10134;50.952;6.930;2022-07-06T15:13:59;25.70;64.30
19945;DHT22;10134;50.952;6.930;2022-07-06T15:16:26;25.90;64.00
19945;DHT22;10134;50.952;6.930;2022-07-06T15:18:54;26.10;63.10
19945;DHT22;10134;50.952;6.930;2022-07-06T15:21:21;26.20;62.30
19945;DHT22;10134;50.952;6.930;2022-07-06T15:23:48;26.40;62.30
19945;DHT22;10134;50.952;6.930;2022-07-06T15:26:16;26.50;61.20
19945;DHT22;10134;50.952;6.930;2022-07-06T15:28:43;26.70;61.90
19945;DHT22;10134;50.952;6.930;2022-07-06T15:31:10;26.70;61.30
19945;DHT22;10134;50.952;6.930;2022-07-06T15:33:37;26.80;60.90
19945;DHT22;10134;50.952;6.930;2022-07-06T15:36:05;26.90;61.00
19945;DHT22;10134;50.952;6.930;2022-07-06T15:38:32;27.10;60.60
19945;DHT22;10134;50.952;6.930;2022-07-06T15:41:02;27.10;60.50
19945;DHT22;10134;50.952;6.930;2022-07-06T15:43:30;27.30;60.00
19945;DHT22;10134;50.952;6.930;2022-07-06T15:46:01;27.40;59.50
19945;DHT22;10134;50.952;6.930;2022-07-06T15:48:30;27.50;59.90
19945;DHT22;10134;50.952;6.930;2022-07-06T15:50:58;27.70;59.70
19945;DHT22;10134;50.952;6.930;2022-07-06T15:53:27;27.80;58.50
19945;DHT22;10134;50.952;6.930;2022-07-06T15:55:57;28.00;58.10
19945;DHT22;10134;50.952;6.930;2022-07-06T15:58:25;28.00;57.60
19945;DHT22;10134;50.952;6.930;2022-07-06T16:00:52;28.10;58.10